sensor_id;sensor_type;location;lat;lon;timestamp;pressure;altitude;pressure_sealevel;temperature;humidity
63700;BME280;49845;47.130;142.766;2023-01-26T00:01:30;99171.63;;;-9.36;75.85
63700;BME280;49845;47.130;142.766;2023-01-26T00:04:00;99175.50;;;-9.25;76.20
63700;BME280;49845;47.130;142.766;2023-01-26T00:06:32;99170.56;;;-9.22;75.71
63700;BME280;49845;47.130;142.766;2023-01-26T00:09:03;99134.06;;;-9.46;75.56
63700;BME280;49845;47.130;142.766;2023-01-26T00:11:34;99182.44;;;-9.21;75.63
63700;BME280;49845;47.130;142.766;2023-01-26T00:14:04;99190.69;;;-9.25;75.21
63700;BME280;49845;47.130;142.766;2023-01-26T00:16:40;99188.03;;;-9.28;75.02
63700;BME280;49845;47.130;142.766;2023-01-26T00:19:10;99138.84;;;-9.52;74.54
63700;BME280;49845;47.130;142.766;2023-01-26T00:22:02;99196.44;;;-8.90;74.57
63700;BME280;49845;47.130;142.766;2023-01-26T00:24:36;99199.38;;;-8.81;73.05
63700;BME280;49845;47.130;142.766;2023-01-26T00:27:07;99187.50;;;-8.82;72.52
63700;BME280;49845;47.130;142.766;2023-01-26T00:29:37;99199.88;;;-8.69;72.36
63700;BME280;49845;47.130;142.766;2023-01-26T00:32:07;99201.13;;;-8.59;71.11
63700;BME280;49845;47.130;142.766;2023-01-26T00:34:38;99205.47;;;-8.56;69.53
63700;BME280;49845;47.130;142.766;2023-01-26T00:37:10;99207.47;;;-8.49;69.38
63700;BME280;49845;47.130;142.766;2023-01-26T00:39:40;99210.31;;;-8.41;68.50
63700;BME280;49845;47.130;142.766;2023-01-26T00:42:12;99198.94;;;-8.51;66.52
63700;BME280;49845;47.130;142.766;2023-01-26T00:44:43;99226.63;;;-8.35;67.97
63700;BME280;49845;47.130;142.766;2023-01-26T00:47:14;99112.44;;;-8.60;68.41
63700;BME280;49845;47.130;142.766;2023-01-26T00:49:44;99222.63;;;-7.88;66.80
63700;BME280;49845;47.130;142.766;2023-01-26T00:52:16;99229.13;;;-7.73;64.67
63700;BME280;49845;47.130;142.766;2023-01-26T00:54:47;99234.44;;;-7.67;63.53
63700;BME280;49845;47.130;142.766;2023-01-26T00:57:17;99235.16;;;-7.70;62.36
63700;BME280;49845;47.130;142.766;2023-01-26T00:59:48;99244.13;;;-7.99;61.50
63700;BME280;49845;47.130;142.766;2023-01-26T01:02:18;99234.44;;;-8.09;62.19
63700;BME280;49845;47.130;142.766;2023-01-26T01:04:49;99221.31;;;-7.99;62.47
63700;BME280;49845;47.130;142.766;2023-01-26T01:07:21;99235.03;;;-7.94;61.48
63700;BME280;49845;47.130;142.766;2023-01-26T01:09:52;99224.56;;;-8.03;61.30
63700;BME280;49845;47.130;142.766;2023-01-26T01:12:24;99236.28;;;-8.05;61.76
63700;BME280;49845;47.130;142.766;2023-01-26T01:14:55;99234.44;;;-8.09;61.90
63700;BME280;49845;47.130;142.766;2023-01-26T01:17:49;99238.91;;;-8.04;61.23
63700;BME280;49845;47.130;142.766;2023-01-26T01:20:20;99221.94;;;-8.26;61.21
63700;BME280;49845;47.130;142.766;2023-01-26T01:22:52;99212.78;;;-8.22;61.03
63700;BME280;49845;47.130;142.766;2023-01-26T01:25:22;99230.59;;;-7.99;61.34
63700;BME280;49845;47.130;142.766;2023-01-26T01:27:53;99228.75;;;-7.83;61.88
63700;BME280;49845;47.130;142.766;2023-01-26T01:30:23;99227.78;;;-7.86;60.50
63700;BME280;49845;47.130;142.766;2023-01-26T01:32:53;99225.28;;;-7.85;60.74
63700;BME280;49845;47.130;142.766;2023-01-26T01:35:24;99227.03;;;-7.84;60.46
63700;BME280;49845;47.130;142.766;2023-01-26T01:37:56;99225.28;;;-7.85;59.92
63700;BME280;49845;47.130;142.766;2023-01-26T01:40:27;99233.31;;;-7.95;59.73
63700;BME280;49845;47.130;142.766;2023-01-26T01:42:57;99225.06;;;-7.91;59.63
63700;BME280;49845;47.130;142.766;2023-01-26T01:45:41;99221.81;;;-7.87;59.87
63700;BME280;49845;47.130;142.766;2023-01-26T01:48:17;99219.84;;;-7.94;58.96
63700;BME280;49845;47.130;142.766;2023-01-26T01:50:52;99220.31;;;-7.82;59.58
63700;BME280;49845;47.130;142.766;2023-01-26T01:53:28;99214.13;;;-7.67;59.65
63700;BME280;49845;47.130;142.766;2023-01-26T01:56:02;99214.13;;;-7.67;58.59
63700;BME280;49845;47.130;142.766;2023-01-26T01:58:37;99218.28;;;-7.69;59.37
63700;BME280;49845;47.130;142.766;2023-01-26T02:01:10;99221.63;;;-7.70;58.76
63700;BME280;49845;47.130;142.766;2023-01-26T02:03:44;99215.63;;;-7.72;58.91
63700;BME280;49845;47.130;142.766;2023-01-26T02:06:17;99215.25;;;-7.82;59.38
63700;BME280;49845;47.130;142.766;2023-01-26T02:08:53;99215.31;;;-7.80;59.19
63700;BME280;49845;47.130;142.766;2023-01-26T02:11:27;99194.13;;;-8.03;58.14
63700;BME280;49845;47.130;142.766;2023-01-26T02:13:59;99218.00;;;-7.98;59.14
63700;BME280;49845;47.130;142.766;2023-01-26T02:16:31;99206.50;;;-7.90;59.23
63700;BME280;49845;47.130;142.766;2023-01-26T02:19:02;99156.91;;;-8.04;59.35
63700;BME280;49845;47.130;142.766;2023-01-26T02:21:33;99219.56;;;-7.58;58.86
63700;BME280;49845;47.130;142.766;2023-01-26T02:24:13;99215.75;;;-7.69;58.28
63700;BME280;49845;47.130;142.766;2023-01-26T02:26:49;99205.69;;;-7.66;59.28
63700;BME280;49845;47.130;142.766;2023-01-26T02:29:19;99217.06;;;-7.56;58.53
63700;BME280;49845;47.130;142.766;2023-01-26T02:31:50;99213.00;;;-7.53;58.54
63700;BME280;49845;47.130;142.766;2023-01-26T02:34:21;99210.22;;;-7.37;58.67
63700;BME280;49845;47.130;142.766;2023-01-26T02:36:56;99206.16;;;-7.33;58.29
63700;BME280;49845;47.130;142.766;2023-01-26T02:39:39;99198.81;;;-7.25;57.61
63700;BME280;49845;47.130;142.766;2023-01-26T02:42:14;99208.44;;;-7.17;57.75
63700;BME280;49845;47.130;142.766;2023-01-26T02:45:01;99181.97;;;-7.23;57.27
63700;BME280;49845;47.130;142.766;2023-01-26T02:47:32;99205.28;;;-7.11;57.22
63700;BME280;49845;47.130;142.766;2023-01-26T02:50:02;99208.28;;;-7.44;56.63
63700;BME280;49845;47.130;142.766;2023-01-26T02:52:32;99201.72;;;-7.61;57.40
63700;BME280;49845;47.130;142.766;2023-01-26T02:55:03;99208.47;;;-7.83;57.55
63700;BME280;49845;47.130;142.766;2023-01-26T02:57:55;99095.34;;;-8.66;58.28
63700;BME280;49845;47.130;142.766;2023-01-26T03:00:27;99203.88;;;-8.12;58.71
63700;BME280;49845;47.130;142.766;2023-01-26T03:02:59;99197.16;;;-8.12;58.64
63700;BME280;49845;47.130;142.766;2023-01-26T03:05:30;99197.22;;;-8.10;58.44
63700;BME280;49845;47.130;142.766;2023-01-26T03:08:01;99195.34;;;-8.14;59.12
63700;BME280;49845;47.130;142.766;2023-01-26T03:10:33;99188.56;;;-8.15;58.98
63700;BME280;49845;47.130;142.766;2023-01-26T03:13:05;99209.69;;;-8.15;58.59
63700;BME280;49845;47.130;142.766;2023-01-26T03:15:36;99208.84;;;-8.15;58.67
63700;BME280;49845;47.130;142.766;2023-01-26T03:18:20;99198.72;;;-8.15;58.71
63700;BME280;49845;47.130;142.766;2023-01-26T03:21:11;99179.28;;;-8.36;59.33
63700;BME280;49845;47.130;142.766;2023-01-26T03:23:58;99190.72;;;-8.25;59.51
63700;BME280;49845;47.130;142.766;2023-01-26T03:26:45;99185.72;;;-8.44;60.46
63700;BME280;49845;47.130;142.766;2023-01-26T03:29:34;99197.41;;;-8.48;59.39
63700;BME280;49845;47.130;142.766;2023-01-26T03:32:05;99194.25;;;-8.42;60.12
63700;BME280;49845;47.130;142.766;2023-01-26T03:34:36;99195.84;;;-8.44;59.85
63700;BME280;49845;47.130;142.766;2023-01-26T03:37:06;99189.44;;;-8.36;59.09
63700;BME280;49845;47.130;142.766;2023-01-26T03:39:37;99188.31;;;-8.42;59.38
63700;BME280;49845;47.130;142.766;2023-01-26T03:42:24;99181.75;;;-8.16;59.45
63700;BME280;49845;47.130;142.766;2023-01-26T03:45:13;99189.03;;;-8.24;58.84
63700;BME280;49845;47.130;142.766;2023-01-26T03:48:05;99160.81;;;-8.54;59.05
63700;BME280;49845;47.130;142.766;2023-01-26T03:50:52;99167.41;;;-8.37;59.74
63700;BME280;49845;47.130;142.766;2023-01-26T03:53:40;99184.22;;;-8.39;59.76
63700;BME280;49845;47.130;142.766;2023-01-26T03:56:29;99190.25;;;-8.56;59.51
63700;BME280;49845;47.130;142.766;2023-01-26T03:59:03;99190.03;;;-8.62;60.12
63700;BME280;49845;47.130;142.766;2023-01-26T04:01:40;99139.56;;;-8.98;60.48
63700;BME280;49845;47.130;142.766;2023-01-26T04:04:24;99214.00;;;-8.54;60.27
63700;BME280;49845;47.130;142.766;2023-01-26T04:07:12;99205.75;;;-8.50;59.83
63700;BME280;49845;47.130;142.766;2023-01-26T04:09:59;99206.47;;;-8.32;60.09
63700;BME280;49845;47.130;142.766;2023-01-26T04:12:30;99222.88;;;-8.23;59.45
63700;BME280;49845;47.130;142.766;2023-01-26T04:15:00;99238.13;;;-8.43;58.67
63700;BME280;49845;47.130;142.766;2023-01-26T04:17:49;99220.22;;;-8.86;58.69
63700;BME280;49845;47.130;142.766;2023-01-26T04:20:36;99221.31;;;-9.19;59.99
63700;BME280;49845;47.130;142.766;2023-01-26T04:23:23;99225.16;;;-9.27;59.61
63700;BME280;49845;47.130;142.766;2023-01-26T04:25:54;99225.81;;;-9.31;60.33
63700;BME280;49845;47.130;142.766;2023-01-26T04:28:24;99215.69;;;-9.31;59.28
63700;BME280;49845;47.130;142.766;2023-01-26T04:30:55;99220.63;;;-9.34;59.18
63700;BME280;49845;47.130;142.766;2023-01-26T04:33:27;99216.97;;;-9.21;59.00
63700;BME280;49845;47.130;142.766;2023-01-26T04:36:02;99230.81;;;-8.95;59.24
63700;BME280;49845;47.130;142.766;2023-01-26T04:38:33;99232.94;;;-8.85;58.66
63700;BME280;49845;47.130;142.766;2023-01-26T04:41:04;99214.16;;;-8.90;57.72
63700;BME280;49845;47.130;142.766;2023-01-26T04:43:34;99227.88;;;-8.85;58.36
63700;BME280;49845;47.130;142.766;2023-01-26T04:46:06;99230.81;;;-8.95;58.37
63700;BME280;49845;47.130;142.766;2023-01-26T04:48:38;99236.47;;;-9.01;58.01
63700;BME280;49845;47.130;142.766;2023-01-26T04:51:11;99232.28;;;-9.00;58.27
63700;BME280;49845;47.130;142.766;2023-01-26T04:53:42;99191.50;;;-9.06;58.77
63700;BME280;49845;47.130;142.766;2023-01-26T04:56:18;99224.09;;;-8.75;58.78
63700;BME280;49845;47.130;142.766;2023-01-26T04:58:50;99207.81;;;-9.00;57.49
63700;BME280;49845;47.130;142.766;2023-01-26T05:01:21;99246.22;;;-8.91;57.91
63700;BME280;49845;47.130;142.766;2023-01-26T05:03:53;99237.22;;;-9.03;58.52
63700;BME280;49845;47.130;142.766;2023-01-26T05:06:23;99244.28;;;-9.14;58.37
63700;BME280;49845;47.130;142.766;2023-01-26T05:08:54;99239.78;;;-9.39;59.02
63700;BME280;49845;47.130;142.766;2023-01-26T05:11:24;99254.88;;;-9.59;59.31
63700;BME280;49845;47.130;142.766;2023-01-26T05:13:55;99256.91;;;-9.69;59.66
63700;BME280;49845;47.130;142.766;2023-01-26T05:16:26;99262.28;;;-9.63;60.12
63700;BME280;49845;47.130;142.766;2023-01-26T05:18:58;99262.69;;;-9.72;59.20
63700;BME280;49845;47.130;142.766;2023-01-26T05:21:29;99263.84;;;-9.83;59.98
63700;BME280;49845;47.130;142.766;2023-01-26T05:24:02;99274.22;;;-9.95;60.32
63700;BME280;49845;47.130;142.766;2023-01-26T05:26:33;99272.91;;;-10.05;60.53
63700;BME280;49845;47.130;142.766;2023-01-26T05:29:11;99288.22;;;-10.02;60.63
63700;BME280;49845;47.130;142.766;2023-01-26T05:31:42;99283.31;;;-9.99;60.92
63700;BME280;49845;47.130;142.766;2023-01-26T05:34:14;99297.03;;;-9.93;60.42
63700;BME280;49845;47.130;142.766;2023-01-26T05:36:44;99296.91;;;-9.79;60.77
63700;BME280;49845;47.130;142.766;2023-01-26T05:39:14;99296.13;;;-9.78;60.12
63700;BME280;49845;47.130;142.766;2023-01-26T05:41:45;99301.56;;;-9.70;60.30
63700;BME280;49845;47.130;142.766;2023-01-26T05:44:15;99308.41;;;-9.85;59.57
63700;BME280;49845;47.130;142.766;2023-01-26T05:46:46;99318.25;;;-10.08;59.72
63700;BME280;49845;47.130;142.766;2023-01-26T05:49:18;99308.00;;;-10.27;60.63
63700;BME280;49845;47.130;142.766;2023-01-26T05:51:48;99320.44;;;-10.48;61.05
63700;BME280;49845;47.130;142.766;2023-01-26T05:54:19;99320.50;;;-10.63;61.62
63700;BME280;49845;47.130;142.766;2023-01-26T05:56:49;99323.50;;;-10.70;61.76
63700;BME280;49845;47.130;142.766;2023-01-26T05:59:20;99328.22;;;-10.76;62.14
63700;BME280;49845;47.130;142.766;2023-01-26T06:01:54;99323.31;;;-10.73;62.14
63700;BME280;49845;47.130;142.766;2023-01-26T06:04:27;99337.34;;;-10.78;62.00
63700;BME280;49845;47.130;142.766;2023-01-26T06:06:58;99252.72;;;-11.36;61.85
63700;BME280;49845;47.130;142.766;2023-01-26T06:09:29;99337.19;;;-10.98;62.39
63700;BME280;49845;47.130;142.766;2023-01-26T06:12:00;99342.84;;;-11.02;62.44
63700;BME280;49845;47.130;142.766;2023-01-26T06:14:30;99341.88;;;-11.04;62.10
63700;BME280;49845;47.130;142.766;2023-01-26T06:17:01;99346.22;;;-11.01;62.18
63700;BME280;49845;47.130;142.766;2023-01-26T06:19:33;99339.34;;;-11.04;62.37
63700;BME280;49845;47.130;142.766;2023-01-26T06:22:07;99345.34;;;-11.02;62.46
63700;BME280;49845;47.130;142.766;2023-01-26T06:24:37;99354.22;;;-11.09;62.07
63700;BME280;49845;47.130;142.766;2023-01-26T06:27:11;99352.34;;;-11.13;62.27
63700;BME280;49845;47.130;142.766;2023-01-26T06:29:42;99361.53;;;-11.13;62.43
63700;BME280;49845;47.130;142.766;2023-01-26T06:32:13;99366.28;;;-11.19;62.22
63700;BME280;49845;47.130;142.766;2023-01-26T06:34:45;99298.69;;;-11.71;62.28
63700;BME280;49845;47.130;142.766;2023-01-26T06:37:16;99363.50;;;-11.39;63.11
63700;BME280;49845;47.130;142.766;2023-01-26T06:39:46;99356.56;;;-11.43;63.34
63700;BME280;49845;47.130;142.766;2023-01-26T06:42:17;99362.47;;;-11.42;63.04
63700;BME280;49845;47.130;142.766;2023-01-26T06:44:47;99332.16;;;-11.74;63.02
63700;BME280;49845;47.130;142.766;2023-01-26T06:47:18;99363.03;;;-11.63;63.37
63700;BME280;49845;47.130;142.766;2023-01-26T06:49:52;99382.13;;;-11.66;63.38
63700;BME280;49845;47.130;142.766;2023-01-26T06:52:26;99284.66;;;-12.27;63.85
63700;BME280;49845;47.130;142.766;2023-01-26T06:54:59;99376.75;;;-11.73;63.88
63700;BME280;49845;47.130;142.766;2023-01-26T06:57:30;99382.97;;;-11.81;63.74
63700;BME280;49845;47.130;142.766;2023-01-26T07:00:01;99387.53;;;-11.90;64.35
63700;BME280;49845;47.130;142.766;2023-01-26T07:02:33;99387.31;;;-11.93;64.57
63700;BME280;49845;47.130;142.766;2023-01-26T07:05:06;99403.81;;;-11.98;64.29
63700;BME280;49845;47.130;142.766;2023-01-26T07:07:39;99330.06;;;-12.53;64.34
63700;BME280;49845;47.130;142.766;2023-01-26T07:10:10;99392.69;;;-12.17;64.76
63700;BME280;49845;47.130;142.766;2023-01-26T07:12:41;99391.59;;;-12.35;64.89
63700;BME280;49845;47.130;142.766;2023-01-26T07:15:12;99362.50;;;-12.58;65.38
63700;BME280;49845;47.130;142.766;2023-01-26T07:17:43;99423.03;;;-12.28;65.18
63700;BME280;49845;47.130;142.766;2023-01-26T07:20:15;99429.25;;;-12.36;64.90
63700;BME280;49845;47.130;142.766;2023-01-26T07:22:45;99426.44;;;-12.41;65.45
63700;BME280;49845;47.130;142.766;2023-01-26T07:25:17;99415.63;;;-12.53;65.25
63700;BME280;49845;47.130;142.766;2023-01-26T07:27:48;99446.03;;;-12.50;65.09
63700;BME280;49845;47.130;142.766;2023-01-26T07:30:24;99430.38;;;-12.60;65.31
63700;BME280;49845;47.130;142.766;2023-01-26T07:32:58;99324.88;;;-13.39;65.48
63700;BME280;49845;47.130;142.766;2023-01-26T07:35:30;99442.09;;;-12.73;65.55
63700;BME280;49845;47.130;142.766;2023-01-26T07:38:03;99452.47;;;-12.82;65.60
63700;BME280;49845;47.130;142.766;2023-01-26T07:40:35;99452.44;;;-12.95;66.04
63700;BME280;49845;47.130;142.766;2023-01-26T07:43:06;99423.03;;;-13.23;66.58
63700;BME280;49845;47.130;142.766;2023-01-26T07:45:36;99456.13;;;-13.04;66.27
63700;BME280;49845;47.130;142.766;2023-01-26T07:48:07;99459.44;;;-13.05;66.28
63700;BME280;49845;47.130;142.766;2023-01-26T07:50:39;99463.50;;;-13.07;66.59
63700;BME280;49845;47.130;142.766;2023-01-26T07:53:09;99465.59;;;-13.13;66.66
63700;BME280;49845;47.130;142.766;2023-01-26T07:55:40;99466.06;;;-13.18;67.50
63700;BME280;49845;47.130;142.766;2023-01-26T07:58:11;99445.66;;;-13.23;67.15
63700;BME280;49845;47.130;142.766;2023-01-26T08:00:42;99475.06;;;-13.22;67.00
63700;BME280;49845;47.130;142.766;2023-01-26T08:03:14;99477.81;;;-13.32;67.15
63700;BME280;49845;47.130;142.766;2023-01-26T08:05:46;99459.59;;;-13.55;67.15
63700;BME280;49845;47.130;142.766;2023-01-26T08:08:17;99481.59;;;-13.51;67.20
63700;BME280;49845;47.130;142.766;2023-01-26T08:10:55;99456.44;;;-13.77;67.01
63700;BME280;49845;47.130;142.766;2023-01-26T08:13:45;99488.72;;;-13.70;67.45
63700;BME280;49845;47.130;142.766;2023-01-26T08:16:38;99493.13;;;-13.79;67.52
63700;BME280;49845;47.130;142.766;2023-01-26T08:19:09;99507.75;;;-13.85;67.36
63700;BME280;49845;47.130;142.766;2023-01-26T08:21:41;99499.06;;;-13.91;67.74
63700;BME280;49845;47.130;142.766;2023-01-26T08:24:15;99504.31;;;-13.87;68.08
63700;BME280;49845;47.130;142.766;2023-01-26T08:26:45;99522.59;;;-13.77;68.44
63700;BME280;49845;47.130;142.766;2023-01-26T08:29:16;99501.47;;;-13.92;68.28
63700;BME280;49845;47.130;142.766;2023-01-26T08:32:31;99527.50;;;-14.15;67.60
63700;BME280;49845;47.130;142.766;2023-01-26T08:35:32;99520.41;;;-14.58;67.50
63700;BME280;49845;47.130;142.766;2023-01-26T08:38:53;99521.50;;;-14.78;68.70
63700;BME280;49845;47.130;142.766;2023-01-26T08:41:27;99489.25;;;-15.08;68.90
63700;BME280;49845;47.130;142.766;2023-01-26T08:44:11;99524.53;;;-15.05;69.95
63700;BME280;49845;47.130;142.766;2023-01-26T08:46:51;99528.41;;;-15.32;70.06
63700;BME280;49845;47.130;142.766;2023-01-26T08:49:23;99531.91;;;-15.42;71.09
63700;BME280;49845;47.130;142.766;2023-01-26T08:51:59;99538.22;;;-15.47;70.99
63700;BME280;49845;47.130;142.766;2023-01-26T08:54:40;99532.66;;;-15.43;71.40
63700;BME280;49845;47.130;142.766;2023-01-26T08:57:19;99485.88;;;-15.78;70.91
63700;BME280;49845;47.130;142.766;2023-01-26T08:59:50;99539.72;;;-15.83;70.27
63700;BME280;49845;47.130;142.766;2023-01-26T09:02:21;99535.63;;;-16.15;71.54
63700;BME280;49845;47.130;142.766;2023-01-26T09:04:52;99540.25;;;-16.31;72.55
63700;BME280;49845;47.130;142.766;2023-01-26T09:07:22;99533.97;;;-16.26;73.44
63700;BME280;49845;47.130;142.766;2023-01-26T09:09:55;99504.28;;;-16.43;73.62
63700;BME280;49845;47.130;142.766;2023-01-26T09:12:26;99553.16;;;-16.15;73.97
63700;BME280;49845;47.130;142.766;2023-01-26T09:14:56;99543.16;;;-16.15;74.52
63700;BME280;49845;47.130;142.766;2023-01-26T09:17:27;99536.63;;;-16.13;74.48
63700;BME280;49845;47.130;142.766;2023-01-26T09:19:57;99551.72;;;-16.01;74.19
63700;BME280;49845;47.130;142.766;2023-01-26T09:22:28;99537.91;;;-16.18;73.69
63700;BME280;49845;47.130;142.766;2023-01-26T09:25:00;99557.69;;;-16.21;73.45
63700;BME280;49845;47.130;142.766;2023-01-26T09:27:33;99559.28;;;-16.43;72.97
63700;BME280;49845;47.130;142.766;2023-01-26T09:30:06;99553.78;;;-16.17;74.28
63700;BME280;49845;47.130;142.766;2023-01-26T09:32:37;99540.47;;;-16.28;73.53
63700;BME280;49845;47.130;142.766;2023-01-26T09:35:08;99548.81;;;-16.49;73.21
63700;BME280;49845;47.130;142.766;2023-01-26T09:37:42;99546.81;;;-16.54;73.66
63700;BME280;49845;47.130;142.766;2023-01-26T09:40:18;99544.84;;;-16.58;73.97
63700;BME280;49845;47.130;142.766;2023-01-26T09:43:07;99517.47;;;-16.88;74.12
63700;BME280;49845;47.130;142.766;2023-01-26T09:45:46;99542.94;;;-16.50;74.68
63700;BME280;49845;47.130;142.766;2023-01-26T09:48:30;99542.88;;;-16.62;74.72
63700;BME280;49845;47.130;142.766;2023-01-26T09:51:05;99544.47;;;-16.52;75.19
63700;BME280;49845;47.130;142.766;2023-01-26T09:53:42;99547.28;;;-16.47;75.13
63700;BME280;49845;47.130;142.766;2023-01-26T09:56:20;99549.06;;;-16.46;75.69
63700;BME280;49845;47.130;142.766;2023-01-26T09:58:56;99549.47;;;-16.30;75.78
63700;BME280;49845;47.130;142.766;2023-01-26T10:01:34;99488.09;;;-16.59;75.74
63700;BME280;49845;47.130;142.766;2023-01-26T10:04:13;99369.69;;;-17.25;75.31
63700;BME280;49845;47.130;142.766;2023-01-26T10:06:51;99548.41;;;-16.12;75.49
63700;BME280;49845;47.130;142.766;2023-01-26T10:09:24;99548.06;;;-15.94;76.57
63700;BME280;49845;47.130;142.766;2023-01-26T10:12:00;99550.31;;;-15.75;75.91
63700;BME280;49845;47.130;142.766;2023-01-26T10:14:35;99554.94;;;-15.70;75.59
63700;BME280;49845;47.130;142.766;2023-01-26T10:17:13;99543.78;;;-15.73;75.50
63700;BME280;49845;47.130;142.766;2023-01-26T10:19:49;99546.03;;;-15.54;75.21
63700;BME280;49845;47.130;142.766;2023-01-26T10:22:27;99552.75;;;-15.53;74.57
63700;BME280;49845;47.130;142.766;2023-01-26T10:25:12;99543.16;;;-15.71;73.88
63700;BME280;49845;47.130;142.766;2023-01-26T10:27:45;99550.28;;;-15.87;73.69
63700;BME280;49845;47.130;142.766;2023-01-26T10:30:17;99559.81;;;-15.93;73.94
63700;BME280;49845;47.130;142.766;2023-01-26T10:32:51;99554.56;;;-15.96;74.07
63700;BME280;49845;47.130;142.766;2023-01-26T10:35:23;99549.78;;;-16.15;73.25
63700;BME280;49845;47.130;142.766;2023-01-26T10:37:54;99559.75;;;-16.37;73.69
63700;BME280;49845;47.130;142.766;2023-01-26T10:40:25;99562.56;;;-16.44;74.03
63700;BME280;49845;47.130;142.766;2023-01-26T10:42:58;99554.38;;;-16.64;73.56
63700;BME280;49845;47.130;142.766;2023-01-26T10:45:30;99551.56;;;-16.79;73.68
63700;BME280;49845;47.130;142.766;2023-01-26T10:48:03;99543.19;;;-16.79;74.70
63700;BME280;49845;47.130;142.766;2023-01-26T10:50:35;99503.16;;;-17.11;74.41
63700;BME280;49845;47.130;142.766;2023-01-26T10:56:10;99554.75;;;-17.02;74.38
63700;BME280;49845;47.130;142.766;2023-01-26T10:58:46;99563.72;;;-17.04;74.05
63700;BME280;49845;47.130;142.766;2023-01-26T11:01:18;99570.47;;;-17.23;73.71
63700;BME280;49845;47.130;142.766;2023-01-26T11:04:03;99561.75;;;-17.38;73.82
63700;BME280;49845;47.130;142.766;2023-01-26T11:06:35;99542.88;;;-17.25;74.45
63700;BME280;49845;47.130;142.766;2023-01-26T11:09:10;99527.53;;;-17.50;73.93
63700;BME280;49845;47.130;142.766;2023-01-26T11:11:57;99567.75;;;-17.26;74.54
63700;BME280;49845;47.130;142.766;2023-01-26T11:14:33;99553.00;;;-17.23;74.81
63700;BME280;49845;47.130;142.766;2023-01-26T11:17:12;99564.22;;;-17.08;74.89
63700;BME280;49845;47.130;142.766;2023-01-26T11:20:04;99559.22;;;-17.08;75.08
63700;BME280;49845;47.130;142.766;2023-01-26T11:22:43;99575.69;;;-17.00;75.06
63700;BME280;49845;47.130;142.766;2023-01-26T11:25:23;99580.69;;;-17.10;74.67
63700;BME280;49845;47.130;142.766;2023-01-26T11:28:07;99577.22;;;-17.32;74.88
63700;BME280;49845;47.130;142.766;2023-01-26T11:30:54;99584.22;;;-17.38;75.18
63700;BME280;49845;47.130;142.766;2023-01-26T11:33:31;99583.22;;;-17.41;75.38
63700;BME280;49845;47.130;142.766;2023-01-26T11:36:10;99571.50;;;-17.42;76.15
63700;BME280;49845;47.130;142.766;2023-01-26T11:38:44;99578.97;;;-17.21;76.47
63700;BME280;49845;47.130;142.766;2023-01-26T11:41:30;99596.47;;;-17.21;76.11
63700;BME280;49845;47.130;142.766;2023-01-26T11:44:27;99593.59;;;-17.26;75.81
63700;BME280;49845;47.130;142.766;2023-01-26T11:47:17;99583.97;;;-17.42;75.30
63700;BME280;49845;47.130;142.766;2023-01-26T11:50:03;99586.34;;;-17.33;75.78
63700;BME280;49845;47.130;142.766;2023-01-26T11:52:47;99592.34;;;-17.21;75.89
63700;BME280;49845;47.130;142.766;2023-01-26T11:55:30;99593.44;;;-17.17;76.01
63700;BME280;49845;47.130;142.766;2023-01-26T11:58:24;99598.69;;;-16.93;76.42
63700;BME280;49845;47.130;142.766;2023-01-26T12:00:58;99564.81;;;-16.90;76.63
63700;BME280;49845;47.130;142.766;2023-01-26T12:03:39;99593.19;;;-16.79;76.27
63700;BME280;49845;47.130;142.766;2023-01-26T12:06:16;99549.03;;;-17.42;74.99
63700;BME280;49845;47.130;142.766;2023-01-26T12:08:58;99580.09;;;-17.28;74.67
63700;BME280;49845;47.130;142.766;2023-01-26T12:11:36;99586.47;;;-17.42;74.81
63700;BME280;49845;47.130;142.766;2023-01-26T12:14:17;99499.84;;;-18.04;74.53
63700;BME280;49845;47.130;142.766;2023-01-26T12:17:00;99530.78;;;-17.92;75.11
63700;BME280;49845;47.130;142.766;2023-01-26T12:19:51;99585.41;;;-17.74;75.05
63700;BME280;49845;47.130;142.766;2023-01-26T12:22:29;99568.44;;;-17.78;75.55
63700;BME280;49845;47.130;142.766;2023-01-26T12:25:18;99573.44;;;-17.78;75.68
63700;BME280;49845;47.130;142.766;2023-01-26T12:27:57;99581.44;;;-17.83;75.64
63700;BME280;49845;47.130;142.766;2023-01-26T12:30:33;99582.44;;;-17.91;75.52
63700;BME280;49845;47.130;142.766;2023-01-26T12:33:11;99560.94;;;-18.09;76.17
63700;BME280;49845;47.130;142.766;2023-01-26T12:36:03;99575.41;;;-18.05;76.27
63700;BME280;49845;47.130;142.766;2023-01-26T12:38:44;99581.38;;;-18.13;76.83
63700;BME280;49845;47.130;142.766;2023-01-26T12:41:29;99534.16;;;-18.41;77.09
63700;BME280;49845;47.130;142.766;2023-01-26T12:44:12;99583.84;;;-18.13;77.06
63700;BME280;49845;47.130;142.766;2023-01-26T12:46:55;99533.63;;;-18.47;77.15
63700;BME280;49845;47.130;142.766;2023-01-26T12:49:35;99582.66;;;-18.27;77.02
63700;BME280;49845;47.130;142.766;2023-01-26T12:52:27;99580.91;;;-18.38;76.96
63700;BME280;49845;47.130;142.766;2023-01-26T12:55:17;99586.56;;;-18.20;77.49
63700;BME280;49845;47.130;142.766;2023-01-26T12:58:15;99519.34;;;-18.68;77.13
63700;BME280;49845;47.130;142.766;2023-01-26T13:00:54;99582.16;;;-18.33;77.22
63700;BME280;49845;47.130;142.766;2023-01-26T13:03:30;99582.13;;;-18.43;77.49
63700;BME280;49845;47.130;142.766;2023-01-26T13:06:18;99585.34;;;-18.44;77.39
63700;BME280;49845;47.130;142.766;2023-01-26T13:09:02;99534.53;;;-18.65;77.51
63700;BME280;49845;47.130;142.766;2023-01-26T13:11:45;99576.28;;;-18.44;77.14
63700;BME280;49845;47.130;142.766;2023-01-26T13:17:50;99596.16;;;-18.54;78.13
63700;BME280;49845;47.130;142.766;2023-01-26T13:20:43;99603.09;;;-18.60;77.87
63700;BME280;49845;47.130;142.766;2023-01-26T13:23:39;99596.09;;;-18.64;78.48
63700;BME280;49845;47.130;142.766;2023-01-26T13:26:16;99584.91;;;-18.59;79.43